createdAt,value
2019-05-20T00:00:09.174Z,78.02
2019-05-20T00:02:40.127Z,78.22
2019-05-20T00:05:10.664Z,77.89
2019-05-20T00:07:41.441Z,77.44
2019-05-20T00:10:12.582Z,77.44
2019-05-20T00:12:43.716Z,77.14
2019-05-20T00:15:14.197Z,77.10
2019-05-20T00:17:44.735Z,77.59
2019-05-20T00:20:15.614Z,77.25
2019-05-20T00:22:46.060Z,77.37
2019-05-20T00:25:16.887Z,77.59
2019-05-20T00:27:47.790Z,77.91
2019-05-20T00:30:18.658Z,78.14
2019-05-20T00:32:49.157Z,80.30
2019-05-20T00:35:19.998Z,79.90
2019-05-20T00:37:50.441Z,79.39
2019-05-20T00:40:20.923Z,79.10
2019-05-20T00:42:51.363Z,79.58
2019-05-20T00:45:22.125Z,79.22
2019-05-20T00:47:52.964Z,79.09
2019-05-20T00:50:25.444Z,78.93
2019-05-20T00:52:55.942Z,79.24
2019-05-20T00:55:29.194Z,79.46
2019-05-20T00:58:00.455Z,79.16
2019-05-20T01:00:31.080Z,79.29
2019-05-20T01:03:01.561Z,79.46
2019-05-20T01:05:32.312Z,79.28
2019-05-20T01:08:02.744Z,79.01
2019-05-20T01:10:33.223Z,79.52
2019-05-20T01:13:04.019Z,79.20
2019-05-20T01:15:34.454Z,79.54
2019-05-20T01:18:04.942Z,80.29
2019-05-20T01:20:36.064Z,80.00
2019-05-20T01:23:07.169Z,79.62
2019-05-20T01:25:37.674Z,79.60
2019-05-20T01:28:08.117Z,79.59
2019-05-20T01:30:38.602Z,79.57
2019-05-20T01:33:13.669Z,79.59
2019-05-20T01:35:41.223Z,79.71
2019-05-20T01:38:11.664Z,80.04
2019-05-20T01:40:43.363Z,80.45
2019-05-20T01:43:13.815Z,80.11
2019-05-20T01:45:44.250Z,80.58
2019-05-20T01:48:14.744Z,80.62
2019-05-20T01:50:45.492Z,80.30
2019-05-20T01:53:16.319Z,81.69
2019-05-20T01:55:47.050Z,82.12
2019-05-20T01:58:17.497Z,81.72
2019-05-20T02:00:47.934Z,82.22
2019-05-20T02:03:31.174Z,82.18
2019-05-20T02:05:51.427Z,81.57
2019-05-20T02:08:22.140Z,81.43
2019-05-20T02:10:56.137Z,81.61
2019-05-20T02:13:27.501Z,81.38
2019-05-20T02:16:04.898Z,81.34
2019-05-20T02:18:35.337Z,81.97
2019-05-20T02:21:06.127Z,81.44
2019-05-20T02:23:36.624Z,81.78
2019-05-20T02:26:07.097Z,81.87
2019-05-20T02:28:37.537Z,81.80
2019-05-20T02:31:09.319Z,81.67
2019-05-20T02:33:51.636Z,81.78
2019-05-20T02:36:12.460Z,81.72
2019-05-20T02:38:43.191Z,81.56
2019-05-20T02:41:13.935Z,81.52
2019-05-20T02:43:44.767Z,81.35
2019-05-20T02:46:15.566Z,81.80
2019-05-20T02:48:45.996Z,81.49
2019-05-20T02:51:19.195Z,81.69
2019-05-20T02:53:49.692Z,81.50
2019-05-20T02:56:20.499Z,83.01
2019-05-20T02:58:50.942Z,82.87
2019-05-20T03:01:22.268Z,82.01
2019-05-20T03:04:10.006Z,82.00
2019-05-20T03:06:25.638Z,82.16
2019-05-20T03:08:56.119Z,83.12
2019-05-20T03:11:26.580Z,82.48
2019-05-20T03:13:57.340Z,82.59
2019-05-20T03:16:28.219Z,82.27
2019-05-20T03:18:58.662Z,82.42
2019-05-20T03:21:29.105Z,82.30
2019-05-20T03:23:59.600Z,82.94
2019-05-20T03:26:30.043Z,84.62
2019-05-20T03:29:00.896Z,84.13
2019-05-20T03:31:31.394Z,83.58
2019-05-20T03:34:02.040Z,83.45
2019-05-20T03:36:32.542Z,85.31
2019-05-20T03:39:03.116Z,84.08
2019-05-20T03:41:33.564Z,83.64
2019-05-20T03:44:04.431Z,83.67
2019-05-20T03:46:35.102Z,83.34
2019-05-20T03:49:05.544Z,83.34
2019-05-20T03:51:35.981Z,83.21
2019-05-20T03:54:07.238Z,83.98
2019-05-20T03:56:37.688Z,83.35
2019-05-20T03:59:08.795Z,83.27
2019-05-20T04:01:39.646Z,83.49
2019-05-20T04:04:10.087Z,83.43
2019-05-20T04:06:40.925Z,83.43
2019-05-20T04:09:11.871Z,83.51
2019-05-20T04:11:42.952Z,84.03
2019-05-20T04:14:13.747Z,84.07
2019-05-20T04:16:44.626Z,84.03
2019-05-20T04:19:15.535Z,84.56
2019-05-20T04:21:47.096Z,84.29
2019-05-20T04:24:17.612Z,84.44
2019-05-20T04:26:48.954Z,84.10
2019-05-20T04:29:19.399Z,84.14
2019-05-20T04:31:50.398Z,84.26
2019-05-20T04:34:21.178Z,84.26
2019-05-20T04:36:51.684Z,84.48
2019-05-20T04:39:22.533Z,84.23
2019-05-20T04:41:53.428Z,84.09
2019-05-20T04:44:24.263Z,83.61
2019-05-20T04:46:57.871Z,83.92
2019-05-20T04:49:27.382Z,83.65
2019-05-20T04:51:57.820Z,83.56
2019-05-20T04:54:29.054Z,83.86
2019-05-20T04:56:59.503Z,84.02
2019-05-20T04:59:29.942Z,84.22
2019-05-20T05:02:00.713Z,84.62
2019-05-20T05:04:31.152Z,84.16
2019-05-20T05:07:02.182Z,84.46
2019-05-20T05:09:32.734Z,83.80
2019-05-20T05:12:03.154Z,83.69
2019-05-20T05:14:33.992Z,83.69
2019-05-20T05:17:04.814Z,83.75
2019-05-20T05:19:35.278Z,83.42
2019-05-20T05:22:06.134Z,82.84
2019-05-20T05:24:36.640Z,83.39
2019-05-20T05:27:07.259Z,82.87
2019-05-20T05:29:38.024Z,82.91
2019-05-20T05:32:08.498Z,82.98
2019-05-20T05:34:39.370Z,82.04
2019-05-20T05:37:10.211Z,81.37
2019-05-20T05:39:40.836Z,81.55
2019-05-20T05:42:11.420Z,81.79
2019-05-20T05:44:41.859Z,81.39
2019-05-20T05:47:12.649Z,80.54
2019-05-20T05:49:43.468Z,80.81
2019-05-20T05:52:13.920Z,81.72
2019-05-20T05:54:44.791Z,81.75
2019-05-20T05:57:15.242Z,81.68
2019-05-20T05:59:45.750Z,81.48
2019-05-20T06:02:16.266Z,81.75
2019-05-20T06:04:47.611Z,81.18
2019-05-20T06:07:18.058Z,81.47
2019-05-20T06:09:50.306Z,81.25
2019-05-20T06:12:20.757Z,81.49
2019-05-20T06:14:51.577Z,82.20
2019-05-20T06:17:22.955Z,82.23
2019-05-20T06:19:53.671Z,81.85
2019-05-20T06:22:24.120Z,81.50
2019-05-20T06:24:54.622Z,80.78
2019-05-20T06:27:25.075Z,80.81
2019-05-20T06:29:55.529Z,80.22
2019-05-20T06:32:26.173Z,79.51
2019-05-20T06:34:56.721Z,79.22
2019-05-20T06:37:28.969Z,78.77
2019-05-20T06:39:59.474Z,78.57
2019-05-20T06:42:30.537Z,78.98
2019-05-20T06:45:00.982Z,79.01
2019-05-20T06:47:31.537Z,79.21
2019-05-20T06:50:01.992Z,79.63
2019-05-20T06:52:35.894Z,80.48
2019-05-20T06:55:05.305Z,80.48
2019-05-20T06:57:36.142Z,80.78
2019-05-20T07:00:08.021Z,81.51
2019-05-20T07:02:39.259Z,81.99
2019-05-20T07:05:09.990Z,81.64
2019-05-20T07:07:40.719Z,81.70
2019-05-20T07:10:11.442Z,80.24
2019-05-20T07:12:42.121Z,80.24
2019-05-20T07:15:12.746Z,80.71
2019-05-20T07:17:43.250Z,79.84
2019-05-20T07:20:14.207Z,79.60
2019-05-20T07:22:55.945Z,79.81
2019-05-20T07:25:17.293Z,79.61
2019-05-20T07:27:47.786Z,79.61
2019-05-20T07:30:18.427Z,79.53
2019-05-20T07:32:48.935Z,79.81
2019-05-20T07:35:29.393Z,80.23
2019-05-20T07:37:51.568Z,79.90
2019-05-20T07:40:33.013Z,79.97
2019-05-20T07:43:05.868Z,79.97
2019-05-20T07:45:38.830Z,79.92
2019-05-20T07:48:09.374Z,80.00
2019-05-20T07:50:41.718Z,79.80
2019-05-20T07:53:13.752Z,79.57
2019-05-20T07:56:00.338Z,79.82
2019-05-20T07:58:33.891Z,77.51
2019-05-20T08:01:04.495Z,77.08
2019-05-20T08:03:38.379Z,77.18
2019-05-20T08:06:07.491Z,76.58
2019-05-20T08:08:38.346Z,75.03
2019-05-20T08:11:08.867Z,75.02
2019-05-20T08:13:39.732Z,75.44
2019-05-20T08:16:10.265Z,74.93
2019-05-20T08:18:40.719Z,74.44
2019-05-20T08:21:11.200Z,74.40
2019-05-20T08:23:41.914Z,73.25
2019-05-20T08:26:12.363Z,73.73
2019-05-20T08:28:43.861Z,74.04
2019-05-20T08:31:14.383Z,73.75
2019-05-20T08:33:44.822Z,71.99
2019-05-20T08:36:15.311Z,71.49
2019-05-20T08:38:45.786Z,72.89
2019-05-20T08:41:16.345Z,70.57
2019-05-20T08:43:46.816Z,72.12
2019-05-20T08:46:17.309Z,72.60
2019-05-20T08:48:49.040Z,70.42
2019-05-20T08:51:19.533Z,69.77
2019-05-20T08:53:49.947Z,70.46
2019-05-20T08:56:20.437Z,68.44
2019-05-20T08:58:50.882Z,68.60
2019-05-20T09:01:21.329Z,68.60
2019-05-20T09:03:52.297Z,68.04
2019-05-20T09:06:23.262Z,68.04
2019-05-20T09:08:53.733Z,67.37
2019-05-20T09:11:24.231Z,67.97
2019-05-20T09:13:56.012Z,69.40
2019-05-20T09:16:26.467Z,69.29
2019-05-20T09:18:56.973Z,68.99
2019-05-20T09:21:28.474Z,68.66
2019-05-20T09:23:58.992Z,69.26
2019-05-20T09:26:29.831Z,68.09
2019-05-20T09:29:00.357Z,68.53
2019-05-20T09:31:31.180Z,68.12
2019-05-20T09:34:01.787Z,68.06
2019-05-20T09:36:32.321Z,67.45
2019-05-20T09:39:03.215Z,67.97
2019-05-20T09:41:34.133Z,68.12
2019-05-20T09:44:04.699Z,67.66
2019-05-20T09:46:36.377Z,68.21
2019-05-20T09:49:07.179Z,67.50
2019-05-20T09:51:37.650Z,67.16
2019-05-20T09:54:08.446Z,66.06
2019-05-20T09:56:39.325Z,66.33
2019-05-20T09:59:10.334Z,66.29
2019-05-20T10:01:41.120Z,66.70
2019-05-20T10:04:11.609Z,67.67
2019-05-20T10:06:42.743Z,68.39
2019-05-20T10:09:13.520Z,68.20
2019-05-20T10:11:44.005Z,68.44
2019-05-20T10:14:14.747Z,66.68
2019-05-20T10:16:46.065Z,66.10
2019-05-20T10:19:16.558Z,65.77
2019-05-20T10:21:47.135Z,66.49
2019-05-20T10:24:18.117Z,67.18
2019-05-20T10:26:48.602Z,67.01
2019-05-20T10:29:19.418Z,66.86
2019-05-20T10:31:50.296Z,66.81
2019-05-20T10:34:20.809Z,66.89
2019-05-20T10:36:52.190Z,67.65
2019-05-20T10:39:23.670Z,67.63
2019-05-20T10:41:55.071Z,68.04
2019-05-20T10:44:27.142Z,68.70
2019-05-20T10:46:57.568Z,68.35
2019-05-20T10:49:28.133Z,68.22
2019-05-20T10:51:58.578Z,67.90
2019-05-20T10:54:29.024Z,68.23
2019-05-20T10:56:59.926Z,67.64
2019-05-20T10:59:30.630Z,66.88
2019-05-20T11:02:01.407Z,68.28
2019-05-20T11:04:35.329Z,68.66
2019-05-20T11:07:04.071Z,65.68
2019-05-20T11:09:34.507Z,62.78
2019-05-20T11:12:05.417Z,62.70
2019-05-20T11:14:36.218Z,63.42
2019-05-20T11:17:06.950Z,60.73
2019-05-20T11:19:37.454Z,62.54
2019-05-20T11:22:08.268Z,63.54
2019-05-20T11:24:38.712Z,62.54
2019-05-20T11:27:09.216Z,62.18
2019-05-20T11:29:39.667Z,61.13
2019-05-20T11:32:10.129Z,61.76
2019-05-20T11:34:40.603Z,61.65
2019-05-20T11:37:11.047Z,60.84
2019-05-20T11:39:41.770Z,61.22
2019-05-20T11:42:12.257Z,59.50
2019-05-20T11:44:42.744Z,59.31
2019-05-20T11:47:13.562Z,58.62
2019-05-20T11:49:44.491Z,57.56
2019-05-20T11:52:15.329Z,56.70
2019-05-20T11:54:46.082Z,56.83
2019-05-20T11:57:16.563Z,54.88
2019-05-20T11:59:48.254Z,56.81
2019-05-20T12:02:18.764Z,56.64
2019-05-20T12:04:49.673Z,56.44
2019-05-20T12:07:20.121Z,56.22
2019-05-20T12:09:51.258Z,55.44
2019-05-20T12:12:21.725Z,56.47
2019-05-20T12:14:52.671Z,54.73
2019-05-20T12:17:23.139Z,54.23
2019-05-20T12:19:53.645Z,55.35
2019-05-20T12:22:24.192Z,52.34
2019-05-20T12:24:54.993Z,53.23
2019-05-20T12:27:25.846Z,53.01
2019-05-20T12:29:56.887Z,54.05
2019-05-20T12:32:27.603Z,53.31
2019-05-20T12:34:58.386Z,52.83
2019-05-20T12:37:28.828Z,52.72
2019-05-20T12:40:07.111Z,52.61
2019-05-20T12:42:31.903Z,52.04
2019-05-20T12:45:02.350Z,52.00
2019-05-20T12:47:32.892Z,52.33
2019-05-20T12:50:03.379Z,52.01
2019-05-20T12:52:33.827Z,54.06
2019-05-20T12:55:08.391Z,53.47
2019-05-20T12:57:36.937Z,54.31
2019-05-20T13:00:07.841Z,54.98
2019-05-20T13:02:38.308Z,53.90
2019-05-20T13:05:08.892Z,53.00
2019-05-20T13:07:39.680Z,54.32
2019-05-20T13:10:27.980Z,54.96
2019-05-20T13:12:42.979Z,53.67
2019-05-20T13:15:13.587Z,53.53
2019-05-20T13:17:45.433Z,54.24
2019-05-20T13:20:16.562Z,54.11
2019-05-20T13:22:46.994Z,52.80
2019-05-20T13:25:17.925Z,52.67
2019-05-20T13:27:48.721Z,51.61
2019-05-20T13:30:19.732Z,51.61
2019-05-20T13:32:50.533Z,51.47
2019-05-20T13:35:21.025Z,51.83
2019-05-20T13:37:51.799Z,52.15
2019-05-20T13:40:22.638Z,51.45
2019-05-20T13:42:53.513Z,50.09
2019-05-20T13:45:23.945Z,51.09
2019-05-20T13:47:54.781Z,52.25
2019-05-20T13:50:25.385Z,52.50
2019-05-20T13:52:56.112Z,51.23
2019-05-20T13:55:26.848Z,52.58
2019-05-20T13:57:57.337Z,52.98
2019-05-20T14:00:27.774Z,52.37
2019-05-20T14:02:59.163Z,51.31
2019-05-20T14:05:29.802Z,52.34
2019-05-20T14:08:00.236Z,52.18
2019-05-20T14:10:31.665Z,53.14
2019-05-20T14:13:02.250Z,52.89
2019-05-20T14:15:33.117Z,53.48
2019-05-20T14:18:03.553Z,53.32
2019-05-20T14:20:34.038Z,53.92
2019-05-20T14:23:04.471Z,54.46
2019-05-20T14:25:34.909Z,54.87
2019-05-20T14:28:06.516Z,55.32
2019-05-20T14:30:37.410Z,55.64
2019-05-20T14:33:08.300Z,55.71
2019-05-20T14:35:38.805Z,55.53
2019-05-20T14:38:09.557Z,56.15
2019-05-20T14:40:40.121Z,55.82
2019-05-20T14:43:11.271Z,55.69
2019-05-20T14:45:41.732Z,57.02
2019-05-20T14:48:12.281Z,55.11
2019-05-20T14:50:42.766Z,55.53
2019-05-20T14:53:14.003Z,56.50
2019-05-20T14:55:44.423Z,58.82
2019-05-20T14:58:14.914Z,58.94
2019-05-20T15:00:45.512Z,59.22
2019-05-20T15:03:16.748Z,59.74
2019-05-20T15:05:47.600Z,60.31
2019-05-20T15:08:18.004Z,60.51
2019-05-20T15:10:48.485Z,60.95
2019-05-20T15:13:19.368Z,61.01
2019-05-20T15:15:50.253Z,61.19
2019-05-20T15:18:20.688Z,61.68
2019-05-20T15:20:51.182Z,61.62
2019-05-20T15:23:21.629Z,61.88
2019-05-20T15:25:52.071Z,62.24
2019-05-20T15:28:22.675Z,62.67
2019-05-20T15:30:53.538Z,62.44
2019-05-20T15:33:23.977Z,62.58
2019-05-20T15:35:54.972Z,62.84
2019-05-20T15:38:25.420Z,62.62
2019-05-20T15:40:55.854Z,62.87
2019-05-20T15:43:26.354Z,63.01
2019-05-20T15:45:57.166Z,63.28
2019-05-20T15:48:27.623Z,64.15
2019-05-20T15:50:58.150Z,64.98
2019-05-20T15:53:28.972Z,64.69
2019-05-20T15:55:59.425Z,65.06
2019-05-20T15:58:29.943Z,65.50
2019-05-20T16:01:00.387Z,65.75
2019-05-20T16:03:30.853Z,66.25
2019-05-20T16:06:01.346Z,66.24
2019-05-20T16:08:32.058Z,66.64
2019-05-20T16:11:06.437Z,66.82
2019-05-20T16:13:34.721Z,67.78
2019-05-20T16:16:05.202Z,67.83
2019-05-20T16:18:36.024Z,67.80
2019-05-20T16:21:06.868Z,68.73
2019-05-20T16:23:37.323Z,71.22
2019-05-20T16:26:07.769Z,72.37
2019-05-20T16:28:38.976Z,73.04
2019-05-20T16:31:09.509Z,71.16
2019-05-20T16:33:39.943Z,72.17
2019-05-20T16:36:10.429Z,73.37
2019-05-20T16:38:40.876Z,74.46
2019-05-20T16:41:11.301Z,75.64
2019-05-20T16:43:42.139Z,74.87
2019-05-20T16:46:12.578Z,76.44
2019-05-20T16:48:43.391Z,77.01
2019-05-20T16:51:14.016Z,77.42
2019-05-20T16:53:44.761Z,78.25
2019-05-20T16:56:15.641Z,78.60
2019-05-20T16:58:46.314Z,80.31
2019-05-20T17:01:17.508Z,79.95
2019-05-20T17:03:48.115Z,80.08
2019-05-20T17:06:19.244Z,80.64
2019-05-20T17:08:49.690Z,80.65
2019-05-20T17:11:20.129Z,80.54
2019-05-20T17:13:50.629Z,81.55
2019-05-20T17:16:22.006Z,82.14
2019-05-20T17:18:53.524Z,83.29
2019-05-20T17:21:24.006Z,82.93
2019-05-20T17:23:54.529Z,82.10
2019-05-20T17:26:27.008Z,82.08
2019-05-20T17:28:57.841Z,82.13
2019-05-20T17:31:30.824Z,81.48
2019-05-20T17:34:01.390Z,82.12
2019-05-20T17:36:32.608Z,82.27
2019-05-20T17:39:03.223Z,83.99
2019-05-20T17:41:34.651Z,85.66
2019-05-20T17:44:08.057Z,82.76
2019-05-20T17:46:39.270Z,82.44
2019-05-20T17:49:15.652Z,82.38
2019-05-20T17:51:46.107Z,82.88
2019-05-20T17:54:18.155Z,84.23
2019-05-20T17:56:49.389Z,83.75
2019-05-20T17:59:22.823Z,83.79
2019-05-20T18:01:53.592Z,84.46
2019-05-20T18:04:24.485Z,83.65
2019-05-20T18:06:56.382Z,83.81
2019-05-20T18:09:29.486Z,84.59
2019-05-20T18:12:00.299Z,84.92
2019-05-20T18:14:31.390Z,84.86
2019-05-20T18:17:01.900Z,85.54
2019-05-20T18:19:33.152Z,85.38
2019-05-20T18:22:03.589Z,84.79
2019-05-20T18:24:34.020Z,84.44
2019-05-20T18:27:04.943Z,85.70
2019-05-20T18:29:36.356Z,84.96
2019-05-20T18:32:06.805Z,85.59
2019-05-20T18:34:37.664Z,85.79
2019-05-20T18:37:08.389Z,86.23
2019-05-20T18:39:42.421Z,86.76
2019-05-20T18:42:14.382Z,85.90
2019-05-20T18:44:45.108Z,85.71
2019-05-20T18:47:15.940Z,85.81
2019-05-20T18:49:46.837Z,85.23
2019-05-20T18:52:17.276Z,85.47
2019-05-20T18:54:47.903Z,85.62
2019-05-20T18:57:19.108Z,86.23
2019-05-20T18:59:49.562Z,86.49
2019-05-20T19:02:22.322Z,86.10
2019-05-20T19:04:53.532Z,86.15
2019-05-20T19:07:24.309Z,86.15
2019-05-20T19:09:55.176Z,86.42
2019-05-20T19:12:26.366Z,86.44
2019-05-20T19:14:57.298Z,86.87
2019-05-20T19:17:27.788Z,86.92
2019-05-20T19:19:58.265Z,88.18
2019-05-20T19:22:33.012Z,87.97
2019-05-20T19:25:05.101Z,86.79
2019-05-20T19:27:36.329Z,87.16
2019-05-20T19:30:07.684Z,86.83
2019-05-20T19:32:38.279Z,85.37
2019-05-20T19:35:09.969Z,84.87
2019-05-20T19:37:41.030Z,85.85
2019-05-20T19:40:12.036Z,87.17
2019-05-20T19:46:12.191Z,87.45
2019-05-20T19:48:50.139Z,88.43
2019-05-20T19:51:22.764Z,88.43
2019-05-20T19:53:53.198Z,85.96
2019-05-20T19:56:23.940Z,85.85
2019-05-20T19:58:54.472Z,86.50
2019-05-20T20:01:25.344Z,86.50
2019-05-20T20:03:56.451Z,87.35
2019-05-20T20:06:31.457Z,87.15
2019-05-20T20:09:02.346Z,87.69
2019-05-20T20:11:33.165Z,87.53
2019-05-20T20:14:03.706Z,88.59
2019-05-20T20:16:36.316Z,88.26
2019-05-20T20:19:08.929Z,89.27
2019-05-20T20:21:42.143Z,89.36
2019-05-20T20:24:12.698Z,90.20
2019-05-20T20:26:43.605Z,90.09
2019-05-20T20:29:14.055Z,91.09
2019-05-20T20:31:44.906Z,91.40
2019-05-20T20:34:15.528Z,91.67
2019-05-20T20:36:46.271Z,91.76
2019-05-20T20:39:16.842Z,92.03
2019-05-20T20:41:48.544Z,91.70
2019-05-20T20:44:19.126Z,88.64
2019-05-20T20:46:49.628Z,88.54
2019-05-20T20:49:20.079Z,89.20
2019-05-20T20:51:50.530Z,89.66
2019-05-20T20:54:21.314Z,89.42
2019-05-20T20:56:51.808Z,90.15
2019-05-20T20:59:22.370Z,90.27
2019-05-20T21:01:56.790Z,91.22
2019-05-20T21:04:25.389Z,91.75
2019-05-20T21:06:56.230Z,91.70
2019-05-20T21:09:27.018Z,91.98
2019-05-20T21:11:57.566Z,92.23
2019-05-20T21:14:28.307Z,92.12
2019-05-20T21:16:59.118Z,91.35
2019-05-20T21:19:29.912Z,91.87
2019-05-20T21:22:00.365Z,92.19
2019-05-20T21:24:31.217Z,92.44
2019-05-20T21:27:02.059Z,92.29
2019-05-20T21:29:32.887Z,91.88
2019-05-20T21:32:03.723Z,92.24
2019-05-20T21:34:34.182Z,92.37
2019-05-20T21:37:04.716Z,92.47
2019-05-20T21:39:35.501Z,92.05
2019-05-20T21:42:06.342Z,92.17
2019-05-20T21:44:36.773Z,92.33
2019-05-20T21:47:07.276Z,91.95
2019-05-20T21:49:37.714Z,92.06
2019-05-20T21:52:08.166Z,92.03
2019-05-20T21:54:38.656Z,92.03
2019-05-20T21:57:09.100Z,91.91
2019-05-20T21:59:39.730Z,91.51
2019-05-20T22:02:10.636Z,91.91
2019-05-20T22:04:41.378Z,92.13
2019-05-20T22:07:12.104Z,92.41
2019-05-20T22:09:42.909Z,91.93
2019-05-20T22:12:13.656Z,91.91
2019-05-20T22:14:45.623Z,91.51
2019-05-20T22:17:16.074Z,91.78
2019-05-20T22:19:46.547Z,91.89
2019-05-20T22:22:29.489Z,91.76
2019-05-20T22:25:00.432Z,92.06
2019-05-20T22:27:31.273Z,92.32
2019-05-20T22:30:02.168Z,93.11
2019-05-20T22:32:32.608Z,93.02
2019-05-20T22:35:03.100Z,93.09
2019-05-20T22:37:33.545Z,93.16
2019-05-20T22:40:03.989Z,93.08
2019-05-20T22:42:34.481Z,93.05
2019-05-20T22:45:05.510Z,92.75
2019-05-20T22:47:35.946Z,93.28
2019-05-20T22:50:06.533Z,93.14
2019-05-20T22:52:36.970Z,93.35
2019-05-20T22:55:07.938Z,93.82
2019-05-20T22:57:38.433Z,94.07
2019-05-20T23:00:09.116Z,93.66
2019-05-20T23:02:39.980Z,94.26
2019-05-20T23:05:10.462Z,94.53
2019-05-20T23:07:41.215Z,94.09
2019-05-20T23:10:12.361Z,93.79
2019-05-20T23:12:43.266Z,93.98
2019-05-20T23:15:13.845Z,93.72
2019-05-20T23:17:44.711Z,93.46
2019-05-20T23:20:15.197Z,93.58
2019-05-20T23:22:46.361Z,93.75
2019-05-20T23:25:16.806Z,93.75
2019-05-20T23:27:47.285Z,94.18
2019-05-20T23:30:17.727Z,94.63
2019-05-20T23:32:48.175Z,94.44
2019-05-20T23:35:18.670Z,93.03
2019-05-20T23:37:49.111Z,94.18
2019-05-20T23:40:19.562Z,94.38
2019-05-20T23:42:50.402Z,94.34
2019-05-20T23:45:20.867Z,94.61
2019-05-20T23:47:51.526Z,94.45
2019-05-20T23:50:22.305Z,94.40
2019-05-20T23:52:53.175Z,94.64
2019-05-20T23:55:23.617Z,94.73
2019-05-20T23:57:54.067Z,94.51
